createdAt,value
2022-11-08T00:01:26.640Z,9.95
2022-11-08T00:04:28.290Z,8.88
2022-11-08T00:07:29.952Z,10.27
2022-11-08T00:10:31.551Z,13.25
2022-11-08T00:13:33.089Z,13.40
2022-11-08T00:16:34.784Z,14.15
2022-11-08T00:19:36.310Z,10.75
2022-11-08T00:22:37.877Z,19.50
2022-11-08T00:25:39.404Z,14.25
2022-11-08T00:28:41.004Z,8.90
2022-11-08T00:31:43.656Z,8.25
2022-11-08T00:34:45.887Z,12.07
2022-11-08T00:37:47.418Z,7.88
2022-11-08T00:40:48.968Z,14.90
2022-11-08T00:43:50.498Z,9.77
2022-11-08T00:46:52.846Z,17.55
2022-11-08T00:49:54.372Z,14.57
2022-11-08T00:52:55.872Z,13.10
2022-11-08T00:56:02.405Z,13.50
2022-11-08T00:59:04.082Z,9.77
2022-11-08T01:02:05.697Z,12.23
2022-11-08T01:05:07.602Z,9.90
2022-11-08T01:08:09.986Z,9.20
2022-11-08T01:11:15.530Z,10.30
2022-11-08T01:14:16.951Z,17.17
2022-11-08T01:17:18.397Z,13.73
2022-11-08T01:20:20.017Z,15.10
2022-11-08T01:23:21.447Z,10.65
2022-11-08T01:26:26.289Z,15.27
2022-11-08T01:29:27.705Z,13.18
2022-11-08T01:32:29.160Z,16.33
2022-11-08T01:35:32.212Z,11.48
2022-11-08T01:38:33.983Z,12.43
2022-11-08T01:41:35.403Z,9.43
2022-11-08T01:45:04.708Z,14.52
2022-11-08T01:48:06.289Z,9.65
2022-11-08T01:51:11.667Z,10.85
2022-11-08T01:54:20.376Z,12.55
2022-11-08T01:57:27.905Z,17.30
2022-11-08T02:00:29.829Z,9.73
2022-11-08T02:03:34.358Z,10.68
2022-11-08T02:06:38.639Z,14.07
2022-11-08T02:09:42.278Z,10.88
2022-11-08T02:12:43.791Z,10.95
2022-11-08T02:15:45.372Z,9.73
2022-11-08T02:18:48.597Z,9.18
2022-11-08T02:21:55.879Z,12.25
2022-11-08T02:24:57.623Z,11.15
2022-11-08T02:27:59.019Z,9.90
2022-11-08T02:31:00.434Z,8.93
2022-11-08T02:34:01.917Z,14.65
2022-11-08T02:37:04.304Z,12.25
2022-11-08T02:40:06.383Z,11.82
2022-11-08T02:43:07.769Z,10.18
2022-11-08T02:46:09.574Z,17.65
2022-11-08T02:49:11.008Z,9.15
2022-11-08T02:52:12.717Z,15.15
2022-11-08T02:55:14.181Z,14.38
2022-11-08T02:58:16.309Z,9.88
2022-11-08T03:01:18.096Z,13.43
2022-11-08T03:04:19.557Z,9.95
2022-11-08T03:07:24.821Z,17.33
2022-11-08T03:10:27.821Z,14.27
2022-11-08T03:13:29.276Z,15.00
2022-11-08T03:16:30.699Z,9.68
2022-11-08T03:19:32.144Z,9.70
2022-11-08T03:22:33.565Z,17.88
2022-11-08T03:25:34.986Z,12.02
2022-11-08T03:28:36.442Z,9.05
2022-11-08T03:31:37.859Z,10.82
2022-11-08T03:34:39.350Z,8.85
2022-11-08T03:37:40.851Z,11.38
2022-11-08T03:40:42.691Z,20.92
2022-11-08T03:43:44.088Z,15.80
2022-11-08T03:46:45.467Z,10.88
2022-11-08T03:49:46.894Z,13.07
2022-11-08T03:52:53.213Z,10.57
2022-11-08T03:55:54.868Z,10.88
2022-11-08T03:58:56.330Z,13.07
2022-11-08T04:01:57.858Z,15.05
2022-11-08T04:04:59.374Z,12.23
2022-11-08T04:08:01.538Z,9.90
2022-11-08T04:11:02.942Z,9.35
2022-11-08T04:14:04.385Z,12.55
2022-11-08T04:17:05.810Z,7.95
2022-11-08T04:20:08.661Z,9.48
2022-11-08T04:23:10.077Z,9.55
2022-11-08T04:26:11.702Z,6.78
2022-11-08T04:29:13.199Z,9.02
2022-11-08T04:32:14.608Z,9.02
2022-11-08T04:35:16.020Z,8.70
2022-11-08T04:38:18.416Z,9.10
2022-11-08T04:41:24.614Z,11.20
2022-11-08T04:44:26.009Z,10.52
2022-11-08T04:47:28.057Z,7.30
2022-11-08T04:50:29.509Z,8.40
2022-11-08T04:53:31.119Z,12.77
2022-11-08T04:56:32.880Z,10.88
2022-11-08T04:59:34.313Z,9.05
2022-11-08T05:02:35.842Z,9.40
2022-11-08T05:05:37.328Z,9.20
2022-11-08T05:08:38.968Z,8.10
2022-11-08T05:11:40.396Z,5.38
2022-11-08T05:14:41.824Z,11.65
2022-11-08T05:17:43.241Z,7.50
2022-11-08T05:20:44.674Z,6.75
2022-11-08T05:23:47.543Z,8.18
2022-11-08T05:26:48.969Z,6.82
2022-11-08T05:29:50.363Z,10.25
2022-11-08T05:32:51.815Z,5.85
2022-11-08T05:35:53.283Z,10.18
2022-11-08T05:38:55.454Z,8.25
2022-11-08T05:41:56.882Z,7.97
2022-11-08T05:44:58.309Z,8.63
2022-11-08T05:47:59.708Z,7.82
2022-11-08T05:51:01.636Z,13.02
2022-11-08T05:54:03.088Z,11.48
2022-11-08T05:57:04.500Z,8.02
2022-11-08T06:00:06.552Z,9.63
2022-11-08T06:03:13.057Z,9.23
2022-11-08T06:06:17.794Z,7.80
2022-11-08T06:09:19.256Z,5.53
2022-11-08T06:12:20.709Z,5.20
2022-11-08T06:15:22.122Z,5.25
2022-11-08T06:18:23.534Z,7.47
2022-11-08T06:21:24.941Z,5.00
2022-11-08T06:24:26.378Z,7.38
2022-11-08T06:27:28.102Z,7.60
2022-11-08T06:30:29.703Z,6.05
2022-11-08T06:33:31.903Z,5.97
2022-11-08T06:36:33.326Z,4.40
2022-11-08T06:39:34.760Z,7.78
2022-11-08T06:42:36.156Z,8.00
2022-11-08T06:45:38.257Z,4.85
2022-11-08T06:48:39.660Z,6.85
2022-11-08T06:51:41.086Z,6.07
2022-11-08T06:54:42.491Z,6.40
2022-11-08T06:57:43.913Z,6.50
2022-11-08T07:00:45.325Z,4.15
2022-11-08T07:03:46.866Z,5.60
2022-11-08T07:06:48.325Z,6.28
2022-11-08T07:09:49.743Z,8.38
2022-11-08T07:12:59.777Z,5.72
2022-11-08T07:16:01.892Z,6.13
2022-11-08T07:19:03.337Z,5.85
2022-11-08T07:22:04.780Z,5.38
2022-11-08T07:25:06.859Z,6.80
2022-11-08T07:28:14.150Z,4.38
2022-11-08T07:31:15.749Z,4.95
2022-11-08T07:34:17.152Z,5.78
2022-11-08T07:37:18.597Z,3.35
2022-11-08T07:40:20.464Z,4.75
2022-11-08T07:43:21.984Z,8.48
2022-11-08T07:46:23.679Z,4.85
2022-11-08T07:49:25.101Z,4.15
2022-11-08T07:52:26.745Z,4.00
2022-11-08T07:55:28.180Z,4.18
2022-11-08T07:58:29.563Z,3.97
2022-11-08T08:01:31.021Z,4.70
2022-11-08T08:04:32.602Z,3.65
2022-11-08T08:07:37.698Z,2.75
2022-11-08T08:10:40.150Z,6.32
2022-11-08T08:13:41.592Z,3.08
2022-11-08T08:16:43.021Z,3.92
2022-11-08T08:19:44.464Z,6.57
2022-11-08T08:22:50.736Z,3.17
2022-11-08T08:25:52.590Z,4.50
2022-11-08T08:28:54.285Z,3.22
2022-11-08T08:31:55.886Z,3.63
2022-11-08T08:34:57.426Z,4.22
2022-11-08T08:38:00.024Z,2.20
2022-11-08T08:41:02.114Z,2.92
2022-11-08T08:44:03.692Z,3.50
2022-11-08T08:47:05.120Z,3.30
2022-11-08T08:50:06.861Z,3.05
2022-11-08T08:53:08.316Z,4.05
2022-11-08T08:56:09.869Z,2.38
2022-11-08T09:02:32.694Z,6.47
2022-11-08T09:05:35.013Z,3.72
2022-11-08T09:08:36.474Z,5.55
2022-11-08T09:11:37.996Z,4.68
2022-11-08T09:14:39.445Z,2.80
2022-11-08T09:17:40.878Z,5.38
2022-11-08T09:20:42.338Z,6.60
2022-11-08T09:23:43.751Z,5.30
2022-11-08T09:26:45.305Z,4.45
2022-11-08T09:29:46.720Z,4.47
2022-11-08T09:33:03.942Z,2.20
2022-11-08T09:36:07.686Z,5.63
2022-11-08T09:39:09.097Z,5.60
2022-11-08T09:42:29.029Z,5.53
2022-11-08T09:45:43.219Z,3.47
2022-11-08T09:48:45.513Z,5.55
2022-11-08T09:51:48.842Z,4.63
2022-11-08T09:54:53.871Z,6.37
2022-11-08T09:57:58.244Z,3.85
2022-11-08T10:00:59.908Z,4.88
2022-11-08T10:04:07.981Z,4.97
2022-11-08T10:07:32.330Z,4.25
2022-11-08T10:10:39.697Z,5.47
2022-11-08T10:13:56.865Z,4.00
2022-11-08T10:17:15.031Z,4.93
2022-11-08T10:20:32.704Z,7.43
2022-11-08T10:23:54.716Z,4.90
2022-11-08T10:26:58.876Z,5.72
2022-11-08T10:33:21.952Z,3.22
2022-11-08T10:36:29.411Z,4.47
2022-11-08T10:39:39.025Z,7.63
2022-11-08T10:42:44.996Z,5.20
2022-11-08T10:45:46.440Z,6.03
2022-11-08T10:48:47.946Z,3.85
2022-11-08T10:51:54.694Z,4.30
2022-11-08T10:54:58.554Z,3.83
2022-11-08T10:58:00.338Z,4.45
2022-11-08T11:01:04.766Z,3.63
2022-11-08T11:04:26.358Z,7.95
2022-11-08T11:07:35.823Z,3.45
2022-11-08T11:10:41.395Z,5.45
2022-11-08T11:13:42.803Z,3.97
2022-11-08T11:17:05.351Z,3.65
2022-11-08T11:20:19.050Z,4.85
2022-11-08T11:23:20.550Z,3.05
2022-11-08T11:26:40.904Z,4.78
2022-11-08T11:29:42.345Z,3.33
2022-11-08T11:32:58.139Z,4.80
2022-11-08T11:36:15.379Z,7.32
2022-11-08T11:39:24.911Z,5.78
2022-11-08T11:42:47.009Z,5.65
2022-11-08T11:45:58.356Z,6.20
2022-11-08T11:49:13.125Z,5.22
2022-11-08T11:52:17.465Z,3.88
2022-11-08T11:55:20.138Z,7.57
2022-11-08T11:58:49.423Z,5.07
2022-11-08T12:02:05.843Z,4.72
2022-11-08T12:05:39.535Z,9.10
2022-11-08T12:08:40.898Z,4.88
2022-11-08T12:12:01.383Z,6.18
2022-11-08T12:15:23.195Z,3.30
2022-11-08T12:18:49.435Z,4.88
2022-11-08T12:22:08.271Z,4.05
2022-11-08T12:25:40.480Z,4.28
2022-11-08T12:28:54.171Z,4.68
2022-11-08T12:32:35.403Z,4.93
2022-11-08T12:35:50.571Z,3.42
2022-11-08T12:39:10.281Z,5.30
2022-11-08T12:42:14.696Z,7.30
2022-11-08T12:45:35.097Z,6.50
2022-11-08T12:48:52.581Z,4.47
2022-11-08T12:52:16.082Z,2.78
2022-11-08T12:55:24.369Z,4.78
2022-11-08T12:58:34.580Z,6.25
2022-11-08T13:01:36.823Z,5.35
2022-11-08T13:04:44.088Z,5.25
2022-11-08T13:07:59.047Z,8.00
2022-11-08T13:11:05.688Z,3.45
2022-11-08T13:14:14.270Z,5.38
2022-11-08T13:17:24.608Z,6.35
2022-11-08T13:20:44.238Z,7.30
2022-11-08T13:23:45.716Z,7.60
2022-11-08T13:26:47.253Z,4.07
2022-11-08T13:29:50.087Z,6.85
2022-11-08T13:33:06.853Z,7.75
2022-11-08T13:37:00.971Z,3.80
2022-11-08T13:40:10.810Z,6.75
2022-11-08T13:43:23.609Z,7.03
2022-11-08T13:46:24.972Z,6.97
2022-11-08T13:49:26.442Z,4.53
2022-11-08T13:53:01.142Z,4.07
2022-11-08T13:56:05.708Z,5.38
2022-11-08T13:59:32.186Z,3.58
2022-11-08T14:02:34.233Z,4.60
2022-11-08T14:05:46.447Z,2.90
2022-11-08T14:08:54.559Z,4.10
2022-11-08T14:12:13.422Z,6.18
2022-11-08T14:15:44.691Z,5.55
2022-11-08T14:18:46.111Z,8.85
2022-11-08T14:21:50.512Z,6.47
2022-11-08T14:24:54.443Z,5.68
2022-11-08T14:27:57.095Z,10.23
2022-11-08T14:31:00.325Z,5.93
2022-11-08T14:34:02.098Z,5.67
2022-11-08T14:37:05.936Z,12.00
2022-11-08T14:40:15.745Z,5.32
2022-11-08T14:43:18.362Z,5.97
2022-11-08T14:46:36.283Z,6.82
2022-11-08T14:49:37.682Z,6.90
2022-11-08T14:52:39.182Z,7.28
2022-11-08T14:55:40.726Z,4.18
2022-11-08T14:58:42.791Z,7.72
2022-11-08T15:01:47.645Z,4.13
2022-11-08T15:04:49.857Z,9.90
2022-11-08T15:07:51.444Z,4.38
2022-11-08T15:11:03.163Z,5.70
2022-11-08T15:14:07.998Z,7.57
2022-11-08T15:17:38.951Z,5.32
2022-11-08T15:20:52.451Z,5.75
2022-11-08T15:24:10.662Z,5.33
2022-11-08T15:27:12.036Z,8.57
2022-11-08T15:30:16.389Z,6.25
2022-11-08T15:33:23.360Z,4.55
2022-11-08T15:36:36.498Z,5.78
2022-11-08T15:39:40.835Z,7.03
2022-11-08T15:42:50.980Z,5.85
2022-11-08T15:45:53.460Z,4.68
2022-11-08T15:48:57.168Z,10.98
2022-11-08T15:51:58.604Z,7.97
2022-11-08T15:55:00.044Z,8.00
2022-11-08T15:58:01.569Z,7.43
2022-11-08T16:01:04.780Z,4.70
2022-11-08T16:04:11.608Z,7.43
2022-11-08T16:07:13.109Z,7.53
2022-11-08T16:10:16.862Z,5.32
2022-11-08T16:13:27.650Z,9.48
2022-11-08T16:16:34.049Z,9.52
2022-11-08T16:19:36.403Z,5.80
2022-11-08T16:22:37.787Z,12.52
2022-11-08T16:25:50.238Z,10.80
2022-11-08T16:28:51.692Z,9.50
2022-11-08T16:31:53.125Z,9.35
2022-11-08T16:34:54.525Z,12.55
2022-11-08T16:37:55.949Z,11.10
2022-11-08T16:40:57.359Z,5.18
2022-11-08T16:43:58.794Z,8.23
2022-11-08T16:47:00.196Z,8.27
2022-11-08T16:50:01.649Z,7.25
2022-11-08T16:53:03.051Z,8.63
2022-11-08T16:56:04.552Z,6.55
2022-11-08T16:59:05.985Z,8.00
2022-11-08T17:02:34.512Z,6.95
2022-11-08T17:05:35.919Z,9.00
2022-11-08T17:08:37.348Z,10.18
2022-11-08T17:11:38.992Z,5.47
2022-11-08T17:14:40.378Z,10.88
2022-11-08T17:17:42.616Z,5.28
2022-11-08T17:20:44.089Z,6.43
2022-11-08T17:23:45.540Z,12.27
2022-11-08T17:26:46.980Z,9.43
2022-11-08T17:29:48.639Z,11.82
2022-11-08T17:32:50.232Z,7.28
2022-11-08T17:35:51.685Z,8.38
2022-11-08T17:38:53.126Z,8.05
2022-11-08T17:41:54.535Z,10.55
2022-11-08T17:44:55.967Z,8.70
2022-11-08T17:47:57.394Z,11.35
2022-11-08T17:50:59.669Z,6.30
2022-11-08T17:54:01.082Z,12.32
2022-11-08T17:57:03.982Z,7.40
2022-11-08T18:00:10.680Z,11.07
2022-11-08T18:03:13.972Z,7.85
2022-11-08T18:06:15.401Z,9.30
2022-11-08T18:09:16.997Z,8.13
2022-11-08T18:12:18.472Z,7.28
2022-11-08T18:15:19.888Z,8.32
2022-11-08T18:18:21.385Z,10.85
2022-11-08T18:21:23.114Z,10.52
2022-11-08T18:24:24.516Z,7.05
2022-11-08T18:27:25.936Z,9.95
2022-11-08T18:30:27.432Z,8.07
2022-11-08T18:33:29.212Z,6.65
2022-11-08T18:36:30.861Z,8.57
2022-11-08T18:39:32.272Z,8.52
2022-11-08T18:42:33.748Z,10.35
2022-11-08T18:45:35.262Z,9.57
2022-11-08T18:48:37.316Z,10.80
2022-11-08T18:51:38.812Z,5.07
2022-11-08T18:54:41.393Z,7.25
2022-11-08T18:57:42.925Z,7.25
2022-11-08T19:00:44.351Z,7.68
2022-11-08T19:03:45.849Z,6.90
2022-11-08T19:06:51.621Z,9.05
2022-11-08T19:09:55.968Z,3.60
2022-11-08T19:12:57.651Z,4.45
2022-11-08T19:16:13.717Z,9.93
2022-11-08T19:19:15.132Z,5.88
2022-11-08T19:22:16.564Z,9.50
2022-11-08T19:25:17.982Z,4.57
2022-11-08T19:28:19.414Z,11.00
2022-11-08T19:31:22.921Z,9.45
2022-11-08T19:34:24.324Z,8.35
2022-11-08T19:37:25.719Z,12.82
2022-11-08T19:40:31.967Z,9.40
2022-11-08T19:43:34.668Z,9.82
2022-11-08T19:46:36.203Z,10.35
2022-11-08T19:49:37.647Z,6.38
2022-11-08T19:52:40.072Z,6.43
2022-11-08T19:55:41.500Z,8.05
2022-11-08T19:58:43.532Z,5.30
2022-11-08T20:01:45.105Z,10.55
2022-11-08T20:04:46.603Z,6.15
2022-11-08T20:07:48.055Z,12.15
2022-11-08T20:10:49.478Z,8.63
2022-11-08T20:13:51.396Z,10.07
2022-11-08T20:16:53.770Z,8.60
2022-11-08T20:19:55.365Z,11.52
2022-11-08T20:22:57.302Z,8.25
2022-11-08T20:26:04.377Z,9.07
2022-11-08T20:29:06.284Z,12.40
2022-11-08T20:32:07.762Z,6.65
2022-11-08T20:35:09.641Z,8.15
2022-11-08T20:38:11.154Z,11.77
2022-11-08T20:41:15.289Z,6.88
2022-11-08T20:47:19.126Z,9.73
2022-11-08T20:50:20.611Z,7.03
2022-11-08T20:53:22.018Z,10.23
2022-11-08T20:56:24.727Z,6.13
2022-11-08T20:59:26.441Z,14.57
2022-11-08T21:02:33.083Z,8.88
2022-11-08T21:05:34.685Z,8.15
2022-11-08T21:11:58.634Z,9.82
2022-11-08T21:15:00.037Z,12.05
2022-11-08T21:18:01.485Z,7.90
2022-11-08T21:21:02.830Z,13.25
2022-11-08T21:24:04.413Z,9.68
2022-11-08T21:27:05.853Z,9.85
2022-11-08T21:30:08.013Z,5.35
2022-11-08T21:33:09.450Z,7.97
2022-11-08T21:36:11.173Z,8.30
2022-11-08T21:39:12.748Z,10.30
2022-11-08T21:42:14.275Z,7.78
2022-11-08T21:45:15.862Z,8.40
2022-11-08T21:48:17.643Z,7.55
2022-11-08T21:51:19.389Z,7.30
2022-11-08T21:54:20.878Z,8.70
2022-11-08T21:57:22.330Z,9.65
2022-11-08T22:00:23.759Z,9.40
2022-11-08T22:03:25.193Z,8.93
2022-11-08T22:06:27.889Z,6.85
2022-11-08T22:09:29.544Z,7.88
2022-11-08T22:12:31.231Z,6.07
2022-11-08T22:15:32.691Z,9.02
2022-11-08T22:21:55.564Z,10.55
2022-11-08T22:24:56.999Z,10.18
2022-11-08T22:27:58.433Z,10.82
2022-11-08T22:30:59.860Z,11.90
2022-11-08T22:34:01.430Z,8.50
2022-11-08T22:37:03.003Z,6.10
2022-11-08T22:40:05.304Z,9.80
2022-11-08T22:43:06.970Z,8.48
2022-11-08T22:46:08.425Z,9.98
2022-11-08T22:49:10.804Z,6.07
2022-11-08T22:52:12.274Z,7.38
2022-11-08T22:55:13.702Z,8.70
2022-11-08T22:58:15.135Z,7.80
2022-11-08T23:01:16.620Z,6.45
2022-11-08T23:04:18.027Z,5.53
2022-11-08T23:07:19.512Z,8.52
2022-11-08T23:10:20.968Z,8.35
2022-11-08T23:13:22.429Z,5.15
2022-11-08T23:16:25.098Z,8.10
2022-11-08T23:19:26.568Z,9.20
2022-11-08T23:22:28.009Z,8.63
2022-11-08T23:25:29.568Z,8.25
2022-11-08T23:28:31.037Z,7.85
2022-11-08T23:31:32.531Z,5.72
2022-11-08T23:34:33.940Z,7.20
2022-11-08T23:37:35.386Z,9.10
2022-11-08T23:40:36.840Z,10.05
2022-11-08T23:43:38.234Z,6.97
2022-11-08T23:46:40.278Z,8.45
2022-11-08T23:49:41.672Z,10.68
2022-11-08T23:52:43.063Z,10.10
2022-11-08T23:55:44.572Z,7.00
2022-11-08T23:58:45.976Z,7.30
